Hoffman, Minnesota
Current Conditions -  °F | °C
As of 3:53 AM on Sunday 23 Nov 2014 (Local Time) from KAXN Reporting Station
Broken Clouds Broken Clouds  
Wind Chill: 29°   Ceiling: 12000
Heat Index: 35°   Visibility: 7mi
Dew Point: 33°   Wind: 8mph
Humidity: 92%   Direction: 250°WSW
Pressure: 29.39"   Gusts: NA
Location:  45.83°N, 95.79°W
Report Text: KAXN 230953Z AUTO 25007KT 7SM BKN120 02/01 A2939 RMK AO2 SLP968 T00170006
Loading
Personal Weather Stations






























Interactive Weather Map New forecast layout! Learn more

10-Day Weather Forecast

Advertisements
Track Severe Weather on mobile